createdAt,value
2017-01-03T00:00:51.085Z,0
2017-01-03T00:02:00.067Z,0
2017-01-03T00:03:09.102Z,0
2017-01-03T00:04:18.100Z,0
2017-01-03T00:05:27.309Z,0
2017-01-03T00:06:36.287Z,0
2017-01-03T00:07:45.303Z,0
2017-01-03T00:08:54.281Z,0
2017-01-03T00:10:03.275Z,0
2017-01-03T00:11:12.245Z,0
2017-01-03T00:12:21.215Z,0
2017-01-03T00:13:30.206Z,0
2017-01-03T00:14:39.187Z,0
2017-01-03T00:15:48.592Z,0
2017-01-03T00:16:57.576Z,0
2017-01-03T00:18:06.560Z,0
2017-01-03T00:19:15.530Z,0
2017-01-03T00:20:24.520Z,0
2017-01-03T00:21:33.492Z,0
2017-01-03T00:22:42.498Z,0
2017-01-03T00:23:51.516Z,0
2017-01-03T00:25:00.495Z,0
2017-01-03T00:26:09.477Z,0
2017-01-03T00:27:18.453Z,0
2017-01-03T00:28:27.442Z,0
2017-01-03T00:29:36.430Z,0
2017-01-03T00:30:45.408Z,0
2017-01-03T00:31:54.383Z,0
2017-01-03T00:33:03.354Z,0
2017-01-03T00:34:12.336Z,0
2017-01-03T00:35:21.322Z,0
2017-01-03T00:36:30.329Z,0
2017-01-03T00:37:39.293Z,0
2017-01-03T00:38:48.275Z,0
2017-01-03T00:39:57.248Z,0
2017-01-03T00:41:06.235Z,0
2017-01-03T00:42:15.224Z,0
2017-01-03T00:43:24.194Z,0
2017-01-03T00:44:33.158Z,0
2017-01-03T00:45:42.136Z,0
2017-01-03T00:46:51.110Z,0
2017-01-03T00:48:00.095Z,0
2017-01-03T00:49:09.075Z,0
2017-01-03T00:50:18.059Z,0
2017-01-03T00:51:27.039Z,0
2017-01-03T00:52:36.037Z,0
2017-01-03T00:53:45.019Z,0
2017-01-03T00:54:53.997Z,0
2017-01-03T00:56:03.000Z,0
2017-01-03T00:57:11.978Z,0
2017-01-03T00:58:20.956Z,0
2017-01-03T00:59:29.941Z,0
2017-01-03T01:00:38.919Z,0
2017-01-03T01:01:47.879Z,0
2017-01-03T01:02:56.859Z,0
2017-01-03T01:04:05.839Z,0
2017-01-03T01:05:14.827Z,0
2017-01-03T01:06:23.800Z,0
2017-01-03T01:07:32.778Z,0
2017-01-03T01:08:41.753Z,0
2017-01-03T01:09:50.745Z,0
2017-01-03T01:10:59.749Z,0
2017-01-03T01:12:08.718Z,0
2017-01-03T01:13:17.691Z,0
2017-01-03T01:14:26.665Z,0
2017-01-03T01:15:35.653Z,0
2017-01-03T01:16:44.640Z,0
2017-01-03T01:17:53.619Z,0
2017-01-03T01:19:02.588Z,0
2017-01-03T01:20:11.569Z,0
2017-01-03T01:21:20.543Z,0
2017-01-03T01:22:29.523Z,0
2017-01-03T01:23:38.491Z,0
2017-01-03T01:24:47.470Z,0
2017-01-03T01:25:56.442Z,0
2017-01-03T01:27:05.405Z,0
2017-01-03T01:28:14.385Z,0
2017-01-03T01:29:23.391Z,0
2017-01-03T01:30:32.368Z,0
2017-01-03T01:31:41.340Z,0
2017-01-03T01:32:50.328Z,0
2017-01-03T01:33:59.310Z,0
2017-01-03T01:35:08.282Z,0
2017-01-03T01:36:17.258Z,0
2017-01-03T01:37:26.237Z,0
2017-01-03T01:38:35.213Z,0
2017-01-03T01:39:44.189Z,0
2017-01-03T01:40:53.162Z,0
2017-01-03T01:42:02.141Z,0
2017-01-03T01:43:11.231Z,0
2017-01-03T01:44:20.205Z,0
2017-01-03T01:45:29.180Z,0
2017-01-03T01:46:38.181Z,0
2017-01-03T01:47:47.166Z,0
2017-01-03T01:48:56.136Z,0
2017-01-03T01:50:05.108Z,0
2017-01-03T01:51:14.100Z,0
2017-01-03T01:52:23.077Z,0
2017-01-03T01:53:32.057Z,0
2017-01-03T01:54:41.019Z,0
2017-01-03T01:55:49.995Z,0
2017-01-03T01:56:58.974Z,0
2017-01-03T01:58:07.969Z,0
2017-01-03T01:59:16.940Z,0
2017-01-03T02:00:25.920Z,0
2017-01-03T02:01:34.887Z,0
2017-01-03T02:02:43.873Z,0
2017-01-03T02:03:52.853Z,0
2017-01-03T02:05:01.824Z,0
2017-01-03T02:06:10.810Z,0
2017-01-03T02:07:19.791Z,0
2017-01-03T02:08:28.760Z,0
2017-01-03T02:09:37.736Z,0
2017-01-03T02:10:46.705Z,0
2017-01-03T02:11:55.692Z,0
2017-01-03T02:13:04.657Z,0
2017-01-03T02:14:13.637Z,0
2017-01-03T02:15:22.607Z,0
2017-01-03T02:16:31.589Z,0
2017-01-03T02:17:40.566Z,0
2017-01-03T02:18:49.546Z,0
2017-01-03T02:19:58.520Z,0
2017-01-03T02:21:07.486Z,0
2017-01-03T02:22:16.466Z,0
2017-01-03T02:23:25.435Z,0
2017-01-03T02:24:34.491Z,0
2017-01-03T02:25:44.307Z,0
2017-01-03T02:26:53.290Z,0
2017-01-03T02:28:02.250Z,0
2017-01-03T02:29:11.225Z,0
2017-01-03T02:30:20.210Z,0
2017-01-03T02:31:29.192Z,0
2017-01-03T02:32:38.185Z,0
2017-01-03T02:33:47.148Z,0
2017-01-03T02:34:56.121Z,0
2017-01-03T02:36:05.098Z,0
2017-01-03T02:37:14.069Z,0
2017-01-03T02:38:23.072Z,0
2017-01-03T02:39:32.056Z,0
2017-01-03T02:40:41.032Z,0
2017-01-03T02:41:49.998Z,0
2017-01-03T02:42:58.989Z,0
2017-01-03T02:44:07.962Z,0
2017-01-03T02:45:16.940Z,0
2017-01-03T02:46:25.907Z,0
2017-01-03T02:47:34.882Z,0
2017-01-03T02:48:43.853Z,0
2017-01-03T02:49:52.819Z,0
2017-01-03T02:51:01.819Z,0
2017-01-03T02:52:10.795Z,0
2017-01-03T02:53:19.776Z,0
2017-01-03T02:54:28.748Z,0
2017-01-03T02:55:37.727Z,0
2017-01-03T02:56:46.698Z,0
2017-01-03T02:57:55.670Z,0
2017-01-03T02:59:04.639Z,0
2017-01-03T03:00:13.623Z,0
2017-01-03T03:01:22.604Z,0
2017-01-03T03:02:31.576Z,0
2017-01-03T03:03:40.607Z,0
2017-01-03T03:04:49.598Z,0
2017-01-03T03:05:58.584Z,0
2017-01-03T03:07:07.566Z,0
2017-01-03T03:08:16.536Z,0
2017-01-03T03:09:25.510Z,0
2017-01-03T03:10:34.474Z,0
2017-01-03T03:11:43.462Z,0
2017-01-03T03:12:52.439Z,0
2017-01-03T03:14:01.419Z,0
2017-01-03T03:15:10.381Z,0
2017-01-03T03:16:19.349Z,0
2017-01-03T03:17:28.327Z,0
2017-01-03T03:18:37.306Z,0
2017-01-03T03:19:46.295Z,0
2017-01-03T03:20:55.267Z,0
2017-01-03T03:22:04.244Z,0
2017-01-03T03:23:13.212Z,0
2017-01-03T03:24:22.198Z,0
2017-01-03T03:25:31.170Z,0
2017-01-03T03:26:40.134Z,0
2017-01-03T03:27:49.103Z,0
2017-01-03T03:28:58.077Z,0
2017-01-03T03:30:07.040Z,0
2017-01-03T03:31:16.023Z,0
2017-01-03T03:32:25.058Z,0
2017-01-03T03:33:34.038Z,0
2017-01-03T03:34:42.996Z,0
2017-01-03T03:35:51.988Z,0
2017-01-03T03:37:00.958Z,0
2017-01-03T03:38:09.939Z,0
2017-01-03T03:39:18.910Z,0
2017-01-03T03:40:27.893Z,0
2017-01-03T03:41:36.877Z,0
2017-01-03T03:42:45.871Z,0
2017-01-03T03:43:54.849Z,0
2017-01-03T03:45:03.829Z,0
2017-01-03T03:46:12.837Z,0
2017-01-03T03:47:21.804Z,0
2017-01-03T03:48:30.788Z,0
2017-01-03T03:49:39.766Z,0
2017-01-03T03:50:48.752Z,0
2017-01-03T03:51:57.720Z,0
2017-01-03T03:53:06.698Z,0
2017-01-03T03:54:15.678Z,0
2017-01-03T03:55:24.642Z,0
2017-01-03T03:56:33.623Z,0
2017-01-03T03:57:42.586Z,0
2017-01-03T03:58:51.557Z,0
2017-01-03T04:00:00.528Z,0
2017-01-03T04:01:09.511Z,0
2017-01-03T04:02:18.488Z,0
2017-01-03T04:03:27.456Z,0
2017-01-03T04:04:36.445Z,0
2017-01-03T04:05:45.416Z,0
2017-01-03T04:06:54.402Z,0
2017-01-03T04:08:03.403Z,0
2017-01-03T04:09:12.371Z,0
2017-01-03T04:10:21.352Z,0
2017-01-03T04:11:30.340Z,0
2017-01-03T04:12:39.312Z,0
2017-01-03T04:13:48.289Z,0
2017-01-03T04:14:57.259Z,0
2017-01-03T04:16:06.291Z,0
2017-01-03T04:17:15.271Z,0
2017-01-03T04:18:24.247Z,0
2017-01-03T04:19:33.223Z,0
2017-01-03T04:20:42.225Z,0
2017-01-03T04:21:51.205Z,0
2017-01-03T04:23:00.182Z,0
2017-01-03T04:24:09.157Z,0
2017-01-03T04:25:18.141Z,0
2017-01-03T04:26:27.115Z,0
2017-01-03T04:27:36.096Z,0
2017-01-03T04:28:45.066Z,0
2017-01-03T04:29:54.044Z,0
2017-01-03T04:31:03.026Z,0
2017-01-03T04:32:12.002Z,0
2017-01-03T04:33:21.022Z,0
2017-01-03T04:34:29.991Z,0
2017-01-03T04:35:38.970Z,0
2017-01-03T04:36:47.940Z,0
2017-01-03T04:37:56.917Z,0
2017-01-03T04:39:05.884Z,0
2017-01-03T04:40:14.857Z,0
2017-01-03T04:41:24.436Z,0
2017-01-03T04:42:33.841Z,0
2017-01-03T04:43:42.853Z,0
2017-01-03T04:44:51.823Z,0
2017-01-03T04:46:00.809Z,0
2017-01-03T04:47:09.847Z,0
2017-01-03T04:48:18.838Z,0
2017-01-03T04:49:27.813Z,0
2017-01-03T04:50:36.794Z,0
2017-01-03T04:51:45.779Z,0
2017-01-03T04:52:54.747Z,0
2017-01-03T04:54:03.745Z,0
2017-01-03T04:55:12.706Z,0
2017-01-03T04:56:21.698Z,0
2017-01-03T04:57:30.672Z,0
2017-01-03T04:58:39.653Z,0
2017-01-03T04:59:48.632Z,0
2017-01-03T05:00:57.607Z,0
2017-01-03T05:02:06.587Z,0
2017-01-03T05:03:15.579Z,0
2017-01-03T05:04:24.557Z,0
2017-01-03T05:05:33.534Z,0
2017-01-03T05:06:42.506Z,0
2017-01-03T05:07:51.476Z,0
2017-01-03T05:09:00.444Z,0
2017-01-03T05:10:09.430Z,0
2017-01-03T05:11:18.399Z,0
2017-01-03T05:12:27.384Z,0
2017-01-03T05:13:36.391Z,0
2017-01-03T05:14:45.358Z,0
2017-01-03T05:15:54.346Z,0
2017-01-03T05:17:03.322Z,0
2017-01-03T05:18:12.286Z,0
2017-01-03T05:19:21.259Z,0
2017-01-03T05:20:30.233Z,0
2017-01-03T05:21:39.212Z,0
2017-01-03T05:22:48.189Z,0
2017-01-03T05:23:57.154Z,0
2017-01-03T05:25:06.134Z,0
2017-01-03T05:26:15.111Z,0
2017-01-03T05:27:24.083Z,0
2017-01-03T05:28:33.051Z,0
2017-01-03T05:29:42.034Z,0
2017-01-03T05:30:51.001Z,0
2017-01-03T05:31:59.970Z,0
2017-01-03T05:33:08.949Z,0
2017-01-03T05:34:17.921Z,0
2017-01-03T05:35:26.899Z,0
2017-01-03T05:36:35.883Z,0
2017-01-03T05:37:44.871Z,0
2017-01-03T05:38:53.843Z,0
2017-01-03T05:40:02.811Z,0
2017-01-03T05:41:11.790Z,0
2017-01-03T05:42:20.770Z,0
2017-01-03T05:43:29.759Z,0
2017-01-03T05:44:38.751Z,0
2017-01-03T05:45:47.727Z,0
2017-01-03T05:46:56.700Z,0
2017-01-03T05:48:05.677Z,0
2017-01-03T05:49:14.657Z,0
2017-01-03T05:50:23.625Z,0
2017-01-03T05:51:32.594Z,0
2017-01-03T05:52:41.559Z,0
2017-01-03T05:53:50.543Z,0
2017-01-03T05:54:59.519Z,0
2017-01-03T05:56:08.503Z,0
2017-01-03T05:57:17.480Z,0
2017-01-03T05:58:26.447Z,0
2017-01-03T05:59:35.415Z,0
2017-01-03T06:00:44.389Z,0
2017-01-03T06:01:53.371Z,0
2017-01-03T06:03:02.336Z,0
2017-01-03T06:04:11.321Z,0
2017-01-03T06:05:20.294Z,0
2017-01-03T06:06:29.277Z,0
2017-01-03T06:07:38.251Z,0
2017-01-03T06:08:47.225Z,0
2017-01-03T06:09:56.610Z,0
2017-01-03T06:11:05.588Z,0
2017-01-03T06:12:14.571Z,0
2017-01-03T06:13:23.538Z,0
2017-01-03T06:14:32.517Z,0
2017-01-03T06:15:41.496Z,0
2017-01-03T06:16:50.467Z,0
2017-01-03T06:17:59.451Z,0
2017-01-03T06:19:08.443Z,0
2017-01-03T06:20:17.415Z,0
2017-01-03T06:21:26.422Z,0
2017-01-03T06:22:35.406Z,0
2017-01-03T06:23:44.490Z,0
2017-01-03T06:24:53.466Z,0
2017-01-03T06:26:02.429Z,0
2017-01-03T06:27:11.409Z,0
2017-01-03T06:28:20.387Z,0
2017-01-03T06:29:29.362Z,0
2017-01-03T06:30:38.337Z,0
2017-01-03T06:31:47.307Z,0
2017-01-03T06:32:56.289Z,0
2017-01-03T06:34:05.264Z,0
2017-01-03T06:35:14.236Z,0
2017-01-03T06:36:23.217Z,0
2017-01-03T06:37:32.187Z,0
2017-01-03T06:38:41.172Z,0
2017-01-03T06:39:50.140Z,0
2017-01-03T06:40:59.116Z,0
2017-01-03T06:42:08.094Z,0
2017-01-03T06:43:17.091Z,0
2017-01-03T06:44:26.063Z,0
2017-01-03T06:45:35.042Z,0
2017-01-03T06:46:44.037Z,0
2017-01-03T06:47:53.018Z,0
2017-01-03T06:49:01.992Z,0
2017-01-03T06:50:10.968Z,0
2017-01-03T06:51:19.951Z,0
2017-01-03T06:52:28.914Z,0
2017-01-03T06:53:37.888Z,0
2017-01-03T06:54:46.849Z,0
2017-01-03T06:55:55.842Z,0
2017-01-03T06:57:04.847Z,0
2017-01-03T06:58:13.809Z,0
2017-01-03T06:59:22.785Z,0
2017-01-03T07:00:31.764Z,0
2017-01-03T07:01:40.730Z,0
2017-01-03T07:02:49.714Z,0
2017-01-03T07:03:58.734Z,0
2017-01-03T07:05:07.702Z,0
2017-01-03T07:06:16.669Z,0
2017-01-03T07:07:25.655Z,0
2017-01-03T07:08:34.633Z,0
2017-01-03T07:09:43.613Z,0
2017-01-03T07:10:52.591Z,0
2017-01-03T07:12:01.568Z,0
2017-01-03T07:13:10.585Z,0
2017-01-03T07:14:19.559Z,4
2017-01-03T07:15:28.518Z,4
2017-01-03T07:16:37.509Z,4
2017-01-03T07:17:46.475Z,4
2017-01-03T07:18:55.464Z,4
2017-01-03T07:20:04.436Z,0
2017-01-03T07:21:13.423Z,4
2017-01-03T07:22:22.405Z,4
2017-01-03T07:23:31.387Z,4
2017-01-03T07:24:40.351Z,4
2017-01-03T07:25:49.325Z,4
2017-01-03T07:26:58.340Z,4
2017-01-03T07:28:07.304Z,8
2017-01-03T07:29:16.281Z,8
2017-01-03T07:30:25.260Z,8
2017-01-03T07:31:34.230Z,8
2017-01-03T07:32:43.207Z,8
2017-01-03T07:33:52.177Z,4
2017-01-03T07:35:01.148Z,8
2017-01-03T07:36:10.126Z,8
2017-01-03T07:37:19.108Z,8
2017-01-03T07:38:28.075Z,8
2017-01-03T07:39:37.047Z,12
2017-01-03T07:40:46.039Z,8
2017-01-03T07:41:55.019Z,12
2017-01-03T07:43:03.991Z,12
2017-01-03T07:44:12.958Z,12
2017-01-03T07:45:21.942Z,12
2017-01-03T07:46:30.912Z,12
2017-01-03T07:47:39.904Z,8
2017-01-03T07:48:48.878Z,12
2017-01-03T07:49:57.847Z,12
2017-01-03T07:51:06.829Z,16
2017-01-03T07:52:15.807Z,12
2017-01-03T07:53:24.782Z,12
2017-01-03T07:54:33.768Z,12
2017-01-03T07:55:42.742Z,12
2017-01-03T07:56:51.714Z,16
2017-01-03T07:58:00.705Z,16
2017-01-03T07:59:09.701Z,16
2017-01-03T08:00:18.671Z,16
2017-01-03T08:01:27.653Z,16
2017-01-03T08:02:36.618Z,20
2017-01-03T08:03:45.595Z,24
2017-01-03T08:04:54.600Z,24
2017-01-03T08:06:03.588Z,24
2017-01-03T08:07:12.559Z,28
2017-01-03T08:08:21.540Z,24
2017-01-03T08:09:30.503Z,28
2017-01-03T08:10:39.467Z,28
2017-01-03T08:11:48.454Z,24
2017-01-03T08:12:57.451Z,24
2017-01-03T08:14:06.429Z,24
2017-01-03T08:15:15.408Z,24
2017-01-03T08:16:24.388Z,20
2017-01-03T08:17:33.353Z,28
2017-01-03T08:18:42.327Z,28
2017-01-03T08:19:51.301Z,24
2017-01-03T08:21:00.276Z,24
2017-01-03T08:22:09.256Z,24
2017-01-03T08:23:18.233Z,24
2017-01-03T08:24:27.204Z,24
2017-01-03T08:25:36.167Z,28
2017-01-03T08:26:45.553Z,28
2017-01-03T08:27:54.532Z,28
2017-01-03T08:29:03.503Z,32
2017-01-03T08:30:12.481Z,28
2017-01-03T08:31:21.455Z,32
2017-01-03T08:32:30.451Z,32
2017-01-03T08:33:39.432Z,40
2017-01-03T08:34:48.397Z,36
2017-01-03T08:35:57.366Z,36
2017-01-03T08:37:06.365Z,36
2017-01-03T08:38:15.342Z,40
2017-01-03T08:39:24.325Z,40
2017-01-03T08:40:33.307Z,36
2017-01-03T08:41:42.273Z,40
2017-01-03T08:42:51.253Z,40
2017-01-03T08:44:00.227Z,36
2017-01-03T08:45:09.201Z,44
2017-01-03T08:46:18.173Z,48
2017-01-03T08:47:27.142Z,48
2017-01-03T08:48:36.124Z,48
2017-01-03T08:49:45.094Z,44
2017-01-03T08:50:54.072Z,44
2017-01-03T08:52:03.039Z,52
2017-01-03T08:53:12.017Z,44
2017-01-03T08:54:21.004Z,44
2017-01-03T08:55:29.967Z,44
2017-01-03T08:56:38.952Z,44
2017-01-03T08:57:47.918Z,44
2017-01-03T08:58:56.899Z,48
2017-01-03T09:00:05.865Z,52
2017-01-03T09:01:14.852Z,48
2017-01-03T09:02:24.928Z,60
2017-01-03T09:03:33.902Z,52
2017-01-03T09:04:42.871Z,44
2017-01-03T09:05:51.846Z,52
2017-01-03T09:07:01.287Z,56
2017-01-03T09:08:10.305Z,40
2017-01-03T09:09:19.281Z,40
2017-01-03T09:10:28.258Z,44
2017-01-03T09:11:37.246Z,44
2017-01-03T09:12:46.215Z,40
2017-01-03T09:13:55.198Z,44
2017-01-03T09:15:04.161Z,44
2017-01-03T09:16:13.155Z,40
2017-01-03T09:17:22.128Z,48
2017-01-03T09:18:31.102Z,48
2017-01-03T09:19:40.073Z,48
2017-01-03T09:20:49.041Z,56
2017-01-03T09:21:58.021Z,56
2017-01-03T09:23:07.000Z,60
2017-01-03T09:24:16.023Z,56
2017-01-03T09:25:24.990Z,56
2017-01-03T09:26:33.971Z,76
2017-01-03T09:27:42.955Z,72
2017-01-03T09:28:51.940Z,72
2017-01-03T09:30:00.988Z,64
2017-01-03T09:31:09.996Z,68
2017-01-03T09:32:18.994Z,72
2017-01-03T09:33:27.963Z,76
2017-01-03T09:34:36.967Z,76
2017-01-03T09:35:45.956Z,84
2017-01-03T09:36:54.927Z,64
2017-01-03T09:38:03.917Z,72
2017-01-03T09:39:12.899Z,80
2017-01-03T09:40:21.880Z,64
2017-01-03T09:41:30.874Z,72
2017-01-03T09:42:39.884Z,80
2017-01-03T09:43:48.883Z,72
2017-01-03T09:44:57.856Z,72
2017-01-03T09:46:06.864Z,76
2017-01-03T09:47:15.842Z,84
2017-01-03T09:48:24.820Z,84
2017-01-03T09:49:33.795Z,88
2017-01-03T09:50:42.774Z,80
2017-01-03T09:51:52.123Z,80
2017-01-03T09:53:01.187Z,68
2017-01-03T09:54:10.164Z,92
2017-01-03T09:55:19.189Z,80
2017-01-03T09:56:28.167Z,88
2017-01-03T09:57:37.137Z,116
2017-01-03T09:58:46.129Z,124
2017-01-03T09:59:55.100Z,76
2017-01-03T10:01:04.084Z,100
2017-01-03T10:02:13.066Z,108
2017-01-03T10:03:22.056Z,144
2017-01-03T10:04:31.037Z,132
2017-01-03T10:05:40.016Z,124
2017-01-03T10:06:48.988Z,144
2017-01-03T10:07:57.951Z,124
2017-01-03T10:09:06.941Z,132
2017-01-03T10:10:15.922Z,124
2017-01-03T10:11:24.893Z,128
2017-01-03T10:12:33.868Z,104
2017-01-03T10:13:42.850Z,88
2017-01-03T10:14:51.820Z,104
2017-01-03T10:16:00.800Z,108
2017-01-03T10:17:09.832Z,100
2017-01-03T10:18:18.841Z,92
2017-01-03T10:19:27.829Z,80
2017-01-03T10:20:36.798Z,92
2017-01-03T10:21:45.782Z,140
2017-01-03T10:22:54.755Z,132
2017-01-03T10:24:03.737Z,136
2017-01-03T10:25:12.701Z,140
2017-01-03T10:26:21.667Z,120
2017-01-03T10:27:31.072Z,144
2017-01-03T10:28:40.048Z,120
2017-01-03T10:29:49.034Z,128
2017-01-03T10:30:58.014Z,132
2017-01-03T10:32:07.004Z,160
2017-01-03T10:33:15.969Z,148
2017-01-03T10:34:24.950Z,156
2017-01-03T10:35:33.927Z,160
2017-01-03T10:36:42.909Z,148
2017-01-03T10:37:51.896Z,144
2017-01-03T10:39:00.864Z,144
2017-01-03T10:40:09.837Z,184
2017-01-03T10:41:18.826Z,172
2017-01-03T10:42:27.816Z,172
2017-01-03T10:43:36.926Z,152
2017-01-03T10:44:45.911Z,136
2017-01-03T10:45:54.894Z,104
2017-01-03T10:47:03.867Z,128
2017-01-03T10:48:12.880Z,116
2017-01-03T10:49:21.954Z,144
2017-01-03T10:50:30.930Z,132
2017-01-03T10:51:39.912Z,164
2017-01-03T10:52:48.895Z,140
2017-01-03T10:53:57.872Z,156
2017-01-03T10:55:06.858Z,176
2017-01-03T10:56:15.839Z,148
2017-01-03T10:57:24.815Z,148
2017-01-03T10:58:33.818Z,148
2017-01-03T10:59:42.799Z,144
2017-01-03T11:00:51.772Z,144
2017-01-03T11:02:00.755Z,160
2017-01-03T11:03:09.726Z,128
2017-01-03T11:04:18.709Z,148
2017-01-03T11:05:27.681Z,144
2017-01-03T11:06:36.723Z,156
2017-01-03T11:07:45.695Z,152
2017-01-03T11:08:54.677Z,144
2017-01-03T11:10:03.651Z,132
2017-01-03T11:11:12.626Z,124
2017-01-03T11:12:21.611Z,144
2017-01-03T11:13:30.582Z,92
2017-01-03T11:14:39.559Z,92
2017-01-03T11:15:48.546Z,104
2017-01-03T11:16:57.548Z,92
2017-01-03T11:18:06.521Z,100
2017-01-03T11:19:15.508Z,116
2017-01-03T11:20:24.490Z,124
2017-01-03T11:21:33.478Z,136
2017-01-03T11:22:42.444Z,128
2017-01-03T11:23:51.429Z,120
2017-01-03T11:25:00.416Z,112
2017-01-03T11:26:09.387Z,100
2017-01-03T11:27:18.370Z,120
2017-01-03T11:28:27.359Z,136
2017-01-03T11:29:36.347Z,112
2017-01-03T11:30:45.322Z,116
2017-01-03T11:31:54.304Z,132
2017-01-03T11:33:03.291Z,116
2017-01-03T11:34:12.290Z,108
2017-01-03T11:35:21.268Z,104
2017-01-03T11:36:30.248Z,88
2017-01-03T11:37:39.263Z,108
2017-01-03T11:38:48.246Z,108
2017-01-03T11:39:57.215Z,84
2017-01-03T11:41:06.202Z,84
2017-01-03T11:42:15.207Z,92
2017-01-03T11:43:24.178Z,164
2017-01-03T11:44:33.163Z,144
2017-01-03T11:45:42.239Z,152
2017-01-03T11:46:51.244Z,116
2017-01-03T11:48:00.225Z,160
2017-01-03T11:49:09.209Z,144
2017-01-03T11:50:18.191Z,160
2017-01-03T11:51:27.179Z,168
2017-01-03T11:52:36.154Z,124
2017-01-03T11:53:45.137Z,96
2017-01-03T11:54:54.163Z,96
2017-01-03T11:56:03.155Z,136
2017-01-03T11:57:12.143Z,160
2017-01-03T11:58:21.191Z,116
2017-01-03T11:59:30.173Z,108
2017-01-03T12:00:39.178Z,104
2017-01-03T12:01:48.176Z,112
2017-01-03T12:02:57.182Z,112
2017-01-03T12:04:06.161Z,92
2017-01-03T12:05:15.142Z,100
2017-01-03T12:06:24.107Z,84
2017-01-03T12:07:34.126Z,116
2017-01-03T12:08:43.507Z,100
2017-01-03T12:09:52.522Z,112
2017-01-03T12:11:01.505Z,88
2017-01-03T12:12:11.514Z,76
2017-01-03T12:13:20.515Z,72
2017-01-03T12:14:29.494Z,72
2017-01-03T12:15:38.492Z,76
2017-01-03T12:16:47.478Z,88
2017-01-03T12:17:56.438Z,80
2017-01-03T12:19:05.434Z,108
2017-01-03T12:20:14.416Z,108
2017-01-03T12:21:23.409Z,100
2017-01-03T12:22:32.395Z,112
2017-01-03T12:23:41.379Z,88
2017-01-03T12:24:50.354Z,88
2017-01-03T12:25:59.332Z,72
2017-01-03T12:27:08.313Z,76
2017-01-03T12:28:17.293Z,72
2017-01-03T12:29:26.273Z,88
2017-01-03T12:30:35.262Z,96
2017-01-03T12:31:44.232Z,84
2017-01-03T12:32:53.216Z,76
2017-01-03T12:34:02.192Z,88
2017-01-03T12:35:11.178Z,68
2017-01-03T12:36:20.159Z,68
2017-01-03T12:37:29.143Z,72
2017-01-03T12:38:38.124Z,64
2017-01-03T12:39:47.091Z,72
2017-01-03T12:40:56.079Z,68
2017-01-03T12:42:05.059Z,68
2017-01-03T12:43:14.056Z,68
2017-01-03T12:44:23.039Z,60
2017-01-03T12:45:32.019Z,64
2017-01-03T12:46:41.012Z,68
2017-01-03T12:47:50.001Z,64
2017-01-03T12:48:58.980Z,88
2017-01-03T12:50:07.957Z,80
2017-01-03T12:51:16.943Z,76
2017-01-03T12:52:25.924Z,88
2017-01-03T12:53:34.904Z,96
2017-01-03T12:54:43.920Z,72
2017-01-03T12:55:52.889Z,76
2017-01-03T12:57:01.885Z,76
2017-01-03T12:58:10.869Z,92
2017-01-03T12:59:19.846Z,88
2017-01-03T13:00:28.817Z,64
2017-01-03T13:01:37.790Z,88
2017-01-03T13:02:46.774Z,92
2017-01-03T13:03:55.756Z,84
2017-01-03T13:05:04.745Z,80
2017-01-03T13:06:13.715Z,92
2017-01-03T13:07:22.688Z,84
2017-01-03T13:08:31.659Z,88
2017-01-03T13:09:40.649Z,72
2017-01-03T13:10:49.623Z,56
2017-01-03T13:11:58.614Z,76
2017-01-03T13:13:07.622Z,76
2017-01-03T13:14:16.613Z,56
2017-01-03T13:15:25.576Z,72
2017-01-03T13:16:34.553Z,72
2017-01-03T13:17:43.537Z,68
2017-01-03T13:18:52.510Z,68
2017-01-03T13:20:01.499Z,64
2017-01-03T13:21:10.485Z,72
2017-01-03T13:22:19.462Z,72
2017-01-03T13:23:28.445Z,72
2017-01-03T13:24:37.430Z,80
2017-01-03T13:25:46.403Z,68
2017-01-03T13:26:55.381Z,72
2017-01-03T13:28:04.370Z,68
2017-01-03T13:29:13.381Z,84
2017-01-03T13:30:22.357Z,84
2017-01-03T13:31:31.355Z,72
2017-01-03T13:32:40.341Z,96
2017-01-03T13:33:49.329Z,72
2017-01-03T13:34:58.325Z,72
2017-01-03T13:36:07.306Z,68
2017-01-03T13:37:16.274Z,56
2017-01-03T13:38:25.254Z,68
2017-01-03T13:39:34.236Z,84
2017-01-03T13:40:43.224Z,76
2017-01-03T13:41:52.215Z,92
2017-01-03T13:43:01.185Z,68
2017-01-03T13:44:10.174Z,56
2017-01-03T13:45:19.157Z,60
2017-01-03T13:46:28.133Z,72
2017-01-03T13:47:37.129Z,76
2017-01-03T13:48:46.112Z,52
2017-01-03T13:49:55.096Z,56
2017-01-03T13:51:04.067Z,64
2017-01-03T13:52:13.076Z,76
2017-01-03T13:53:22.066Z,68
2017-01-03T13:54:31.040Z,60
2017-01-03T13:55:40.024Z,52
2017-01-03T13:56:48.985Z,56
2017-01-03T13:57:57.973Z,64
2017-01-03T13:59:06.968Z,52
2017-01-03T14:00:15.965Z,44
2017-01-03T14:01:24.941Z,52
2017-01-03T14:02:33.931Z,44
2017-01-03T14:03:42.904Z,44
2017-01-03T14:04:51.874Z,40
2017-01-03T14:06:00.865Z,48
2017-01-03T14:07:09.855Z,48
2017-01-03T14:08:18.828Z,44
2017-01-03T14:09:27.819Z,44
2017-01-03T14:10:36.786Z,40
2017-01-03T14:11:45.771Z,40
2017-01-03T14:12:54.743Z,36
2017-01-03T14:14:03.720Z,32
2017-01-03T14:15:12.687Z,36
2017-01-03T14:16:22.096Z,36
2017-01-03T14:17:31.068Z,36
2017-01-03T14:18:40.048Z,36
2017-01-03T14:19:49.039Z,40
2017-01-03T14:20:58.014Z,32
2017-01-03T14:22:07.396Z,32
2017-01-03T14:23:16.386Z,40
2017-01-03T14:24:25.360Z,36
2017-01-03T14:25:34.351Z,32
2017-01-03T14:26:43.336Z,32
2017-01-03T14:27:52.321Z,36
2017-01-03T14:29:01.307Z,36
2017-01-03T14:30:10.282Z,32
2017-01-03T14:31:19.275Z,20
2017-01-03T14:32:28.256Z,24
2017-01-03T14:33:37.230Z,24
2017-01-03T14:34:46.219Z,24
2017-01-03T14:35:55.198Z,20
2017-01-03T14:37:04.180Z,20
2017-01-03T14:38:13.163Z,16
2017-01-03T14:39:22.195Z,24
2017-01-03T14:40:31.165Z,16
2017-01-03T14:41:40.152Z,12
2017-01-03T14:42:49.137Z,12
2017-01-03T14:43:58.121Z,16
2017-01-03T14:45:07.109Z,24
2017-01-03T14:46:16.089Z,16
2017-01-03T14:47:25.069Z,16
2017-01-03T14:48:34.071Z,12
2017-01-03T14:49:43.054Z,12
2017-01-03T14:50:52.025Z,16
2017-01-03T14:52:01.006Z,8
2017-01-03T14:53:09.992Z,8
2017-01-03T14:54:18.980Z,8
2017-01-03T14:55:27.982Z,8
2017-01-03T14:56:36.945Z,8
2017-01-03T14:57:45.936Z,8
2017-01-03T14:58:54.915Z,8
2017-01-03T15:00:03.884Z,8
2017-01-03T15:01:12.866Z,4
2017-01-03T15:02:21.900Z,8
2017-01-03T15:03:30.879Z,4
2017-01-03T15:04:39.866Z,4
2017-01-03T15:05:48.845Z,4
2017-01-03T15:06:57.829Z,4
2017-01-03T15:08:06.810Z,4
2017-01-03T15:09:15.797Z,4
2017-01-03T15:10:24.781Z,4
2017-01-03T15:11:33.763Z,4
2017-01-03T15:12:42.744Z,0
2017-01-03T15:13:51.726Z,0
2017-01-03T15:15:01.120Z,0
2017-01-03T15:16:10.109Z,4
2017-01-03T15:17:19.086Z,0
2017-01-03T15:18:28.072Z,0
2017-01-03T15:19:37.054Z,0
2017-01-03T15:20:46.028Z,0
2017-01-03T15:21:55.027Z,0
2017-01-03T15:23:04.000Z,0
2017-01-03T15:24:12.990Z,0
2017-01-03T15:25:21.970Z,0
2017-01-03T15:26:30.961Z,0
2017-01-03T15:27:39.923Z,0
2017-01-03T15:28:48.913Z,0
2017-01-03T15:29:57.886Z,0
2017-01-03T15:31:06.884Z,0
2017-01-03T15:32:15.865Z,0
2017-01-03T15:33:24.842Z,0
2017-01-03T15:34:33.812Z,0
2017-01-03T15:35:42.806Z,0
2017-01-03T15:36:51.781Z,0
2017-01-03T15:38:00.769Z,0
2017-01-03T15:39:09.752Z,0
2017-01-03T15:40:18.739Z,0
2017-01-03T15:41:27.711Z,0
2017-01-03T15:42:36.700Z,0
2017-01-03T15:43:45.689Z,0
2017-01-03T15:44:54.666Z,0
2017-01-03T15:46:03.642Z,0
2017-01-03T15:47:12.608Z,0
2017-01-03T15:48:21.603Z,0
2017-01-03T15:49:30.615Z,0
2017-01-03T15:50:39.606Z,0
2017-01-03T15:51:48.585Z,0
2017-01-03T15:52:57.569Z,0
2017-01-03T15:54:06.552Z,0
2017-01-03T15:55:15.534Z,0
2017-01-03T15:56:24.521Z,4
2017-01-03T15:57:33.499Z,0
2017-01-03T15:58:42.474Z,0
2017-01-03T15:59:51.458Z,0
2017-01-03T16:01:00.441Z,0
2017-01-03T16:02:09.424Z,0
2017-01-03T16:03:18.414Z,0
2017-01-03T16:04:27.421Z,0
2017-01-03T16:05:36.388Z,0
2017-01-03T16:06:45.361Z,4
2017-01-03T16:07:54.339Z,4
2017-01-03T16:09:03.322Z,4
2017-01-03T16:10:12.315Z,4
2017-01-03T16:11:21.318Z,0
2017-01-03T16:12:30.314Z,0
2017-01-03T16:13:39.305Z,0
2017-01-03T16:14:48.384Z,0
2017-01-03T16:15:57.375Z,0
2017-01-03T16:17:06.357Z,0
2017-01-03T16:18:15.337Z,0
2017-01-03T16:19:24.332Z,0
2017-01-03T16:20:33.309Z,0
2017-01-03T16:21:42.347Z,4
2017-01-03T16:22:52.173Z,0
2017-01-03T16:24:01.148Z,0
2017-01-03T16:25:10.124Z,0
2017-01-03T16:26:19.113Z,0
2017-01-03T16:27:28.101Z,0
2017-01-03T16:28:37.092Z,0
2017-01-03T16:29:46.064Z,0
2017-01-03T16:30:55.057Z,0
2017-01-03T16:32:04.041Z,4
2017-01-03T16:33:13.021Z,4
2017-01-03T16:34:22.027Z,4
2017-01-03T16:35:31.009Z,0
2017-01-03T16:36:40.552Z,4
2017-01-03T16:37:50.008Z,4
2017-01-03T16:38:59.899Z,4
2017-01-03T16:40:08.893Z,0